createdAt,value
2019-05-01T00:00:17.812Z,40.93
2019-05-01T00:03:14.764Z,40.80
2019-05-01T00:05:49.355Z,40.83
2019-05-01T00:08:21.815Z,40.94
2019-05-01T00:10:53.961Z,40.85
2019-05-01T00:13:26.394Z,40.75
2019-05-01T00:15:59.337Z,40.75
2019-05-01T00:18:32.014Z,40.90
2019-05-01T00:21:04.514Z,40.92
2019-05-01T00:23:37.329Z,40.67
2019-05-01T00:26:10.104Z,40.91
2019-05-01T00:28:42.870Z,40.91
2019-05-01T00:31:15.494Z,40.78
2019-05-01T00:33:47.868Z,41.01
2019-05-01T00:36:20.332Z,41.06
2019-05-01T00:38:52.816Z,41.18
2019-05-01T00:41:24.880Z,40.82
2019-05-01T00:43:57.396Z,41.03
2019-05-01T00:46:29.922Z,41.10
2019-05-01T00:49:02.426Z,41.03
2019-05-01T00:51:34.892Z,41.14
2019-05-01T00:54:06.907Z,41.05
2019-05-01T00:56:52.815Z,40.85
2019-05-01T00:59:43.530Z,41.04
2019-05-01T01:02:38.436Z,41.13
2019-05-01T01:05:10.825Z,41.00
2019-05-01T01:07:42.988Z,41.03
2019-05-01T01:10:15.389Z,40.87
2019-05-01T01:12:47.853Z,40.88
2019-05-01T01:15:20.002Z,40.81
2019-05-01T01:17:52.103Z,40.73
2019-05-01T01:20:24.283Z,40.87
2019-05-01T01:22:56.848Z,40.89
2019-05-01T01:25:29.011Z,41.00
2019-05-01T01:28:01.317Z,40.93
2019-05-01T01:30:33.830Z,41.02
2019-05-01T01:33:05.852Z,40.96
2019-05-01T01:35:38.323Z,40.89
2019-05-01T01:38:10.859Z,40.95
2019-05-01T01:40:42.828Z,40.97
2019-05-01T01:43:36.425Z,41.04
2019-05-01T01:46:10.349Z,40.96
2019-05-01T01:48:43.333Z,41.00
2019-05-01T01:51:15.899Z,40.70
2019-05-01T01:53:48.330Z,40.71
2019-05-01T01:56:20.585Z,40.87
2019-05-01T01:58:52.883Z,40.80
2019-05-01T02:01:42.597Z,40.80
2019-05-01T02:04:24.833Z,40.93
2019-05-01T02:06:57.060Z,40.93
2019-05-01T02:09:29.364Z,40.88
2019-05-01T02:12:01.906Z,40.88
2019-05-01T02:14:34.525Z,41.06
2019-05-01T02:17:06.902Z,40.83
2019-05-01T02:19:39.029Z,40.77
2019-05-01T02:22:11.769Z,40.79
2019-05-01T02:24:43.273Z,40.86
2019-05-01T02:27:21.114Z,40.84
2019-05-01T02:29:56.843Z,40.84
2019-05-01T02:32:30.349Z,40.67
2019-05-01T02:35:02.857Z,40.68
2019-05-01T02:37:35.807Z,40.57
2019-05-01T02:40:52.857Z,40.62
2019-05-01T02:43:25.321Z,40.84
2019-05-01T02:45:58.880Z,40.60
2019-05-01T02:48:32.987Z,40.62
2019-05-01T02:51:05.842Z,40.55
2019-05-01T02:53:39.872Z,40.38
2019-05-01T02:56:35.692Z,40.44
2019-05-01T02:59:08.801Z,40.29
2019-05-01T03:01:47.320Z,40.29
2019-05-01T03:04:14.807Z,40.33
2019-05-01T03:06:46.845Z,40.33
2019-05-01T03:09:19.803Z,40.41
2019-05-01T03:11:52.046Z,40.31
2019-05-01T03:14:24.494Z,40.23
2019-05-01T03:16:57.528Z,40.31
2019-05-01T03:19:55.096Z,40.23
2019-05-01T03:22:38.770Z,40.23
2019-05-01T03:25:10.889Z,40.45
2019-05-01T03:27:43.367Z,40.48
2019-05-01T03:30:16.329Z,40.30
2019-05-01T03:32:48.875Z,40.20
2019-05-01T03:35:21.000Z,40.22
2019-05-01T03:37:53.878Z,40.28
2019-05-01T03:40:25.994Z,40.27
2019-05-01T03:42:58.277Z,40.12
2019-05-01T03:45:34.144Z,40.14
2019-05-01T03:48:04.914Z,40.09
2019-05-01T03:50:37.288Z,40.09
2019-05-01T03:53:09.894Z,40.13
2019-05-01T03:55:41.919Z,40.22
2019-05-01T03:58:13.988Z,40.21
2019-05-01T04:00:56.881Z,40.14
2019-05-01T04:03:33.420Z,40.17
2019-05-01T04:06:05.795Z,40.38
2019-05-01T04:08:38.325Z,40.11
2019-05-01T04:11:10.807Z,40.12
2019-05-01T04:13:43.854Z,40.21
2019-05-01T04:16:16.832Z,40.08
2019-05-01T04:18:49.317Z,40.18
2019-05-01T04:21:23.531Z,40.27
2019-05-01T04:23:55.843Z,40.34
2019-05-01T04:26:28.406Z,40.34
2019-05-01T04:29:19.534Z,40.37
2019-05-01T04:32:05.332Z,40.44
2019-05-01T04:35:05.501Z,40.40
2019-05-01T04:37:37.995Z,40.64
2019-05-01T04:40:10.243Z,40.53
2019-05-01T04:42:42.802Z,40.39
2019-05-01T04:45:14.871Z,40.49
2019-05-01T04:47:46.899Z,40.46
2019-05-01T04:50:18.900Z,40.27
2019-05-01T04:52:51.790Z,40.55
2019-05-01T04:55:23.923Z,40.63
2019-05-01T04:57:56.328Z,40.48
2019-05-01T05:00:28.894Z,40.42
2019-05-01T05:03:08.509Z,40.25
2019-05-01T05:05:41.328Z,40.27
2019-05-01T05:08:13.558Z,40.31
2019-05-01T05:10:46.329Z,40.45
2019-05-01T05:13:23.619Z,40.44
2019-05-01T05:16:26.663Z,40.54
2019-05-01T05:18:58.289Z,40.48
2019-05-01T05:21:30.574Z,40.28
2019-05-01T05:24:02.320Z,40.25
2019-05-01T05:26:33.948Z,40.19
2019-05-01T05:29:06.443Z,40.18
2019-05-01T05:31:39.325Z,40.18
2019-05-01T05:34:11.902Z,40.19
2019-05-01T05:36:44.329Z,40.46
2019-05-01T05:39:28.713Z,39.89
2019-05-01T05:41:59.709Z,40.18
2019-05-01T05:44:31.895Z,40.22
2019-05-01T05:47:04.351Z,39.99
2019-05-01T05:49:37.005Z,39.95
2019-05-01T05:52:33.512Z,40.08
2019-05-01T05:55:28.601Z,40.03
2019-05-01T05:58:06.416Z,40.14
2019-05-01T06:01:06.284Z,40.14
2019-05-01T06:03:57.904Z,40.05
2019-05-01T06:06:39.508Z,39.66
2019-05-01T06:09:14.244Z,39.79
2019-05-01T06:12:04.963Z,39.65
2019-05-01T06:14:56.315Z,39.62
2019-05-01T06:17:53.847Z,39.97
2019-05-01T06:20:41.783Z,39.63
2019-05-01T06:23:22.484Z,39.51
2019-05-01T06:26:00.009Z,39.60
2019-05-01T06:28:30.315Z,39.60
2019-05-01T06:31:22.980Z,39.61
2019-05-01T06:33:54.612Z,39.54
2019-05-01T06:36:25.805Z,39.45
2019-05-01T06:38:58.395Z,39.32
2019-05-01T06:41:40.810Z,39.15
2019-05-01T06:44:21.277Z,38.94
2019-05-01T06:47:11.689Z,39.20
2019-05-01T06:50:07.234Z,39.06
2019-05-01T06:52:40.837Z,38.90
2019-05-01T06:55:12.890Z,39.00
2019-05-01T06:57:45.677Z,38.89
2019-05-01T07:00:21.532Z,38.84
2019-05-01T07:02:54.417Z,38.57
2019-05-01T07:05:27.070Z,38.56
2019-05-01T07:07:59.842Z,38.63
2019-05-01T07:10:43.581Z,38.66
2019-05-01T07:13:06.604Z,38.61
2019-05-01T07:15:38.273Z,38.65
2019-05-01T07:18:11.573Z,38.44
2019-05-01T07:21:01.272Z,38.49
2019-05-01T07:23:33.884Z,38.65
2019-05-01T07:26:10.007Z,38.64
2019-05-01T07:28:43.714Z,38.59
2019-05-01T07:31:16.374Z,38.63
2019-05-01T07:33:51.168Z,38.46
2019-05-01T07:36:22.921Z,38.55
2019-05-01T07:38:55.451Z,38.55
2019-05-01T07:41:27.869Z,38.59
2019-05-01T07:44:30.054Z,38.50
2019-05-01T07:47:18.891Z,38.44
2019-05-01T07:50:04.695Z,38.67
2019-05-01T07:52:35.749Z,38.61
2019-05-01T07:55:13.035Z,38.40
2019-05-01T07:57:44.448Z,38.35
2019-05-01T08:00:26.272Z,38.52
2019-05-01T08:02:58.394Z,38.71
2019-05-01T08:05:30.872Z,38.58
2019-05-01T08:08:07.419Z,38.45
2019-05-01T08:10:36.789Z,38.46
2019-05-01T08:13:08.711Z,38.29
2019-05-01T08:15:40.455Z,38.45
2019-05-01T08:18:16.842Z,38.54
2019-05-01T08:20:54.585Z,38.38
2019-05-01T08:23:26.922Z,38.44
2019-05-01T08:26:03.987Z,38.44
2019-05-01T08:28:52.004Z,38.57
2019-05-01T08:31:37.829Z,38.57
2019-05-01T08:34:12.027Z,38.87
2019-05-01T08:36:47.323Z,38.96
2019-05-01T08:39:18.346Z,39.30
2019-05-01T08:41:50.837Z,39.55
2019-05-01T08:44:24.851Z,39.77
2019-05-01T08:47:14.678Z,40.20
2019-05-01T08:50:01.318Z,40.26
2019-05-01T08:52:33.878Z,40.20
2019-05-01T08:55:09.328Z,40.31
2019-05-01T08:57:40.811Z,40.39
2019-05-01T09:00:13.296Z,40.32
2019-05-01T09:02:45.302Z,40.19
2019-05-01T09:05:28.529Z,40.04
2019-05-01T09:07:55.428Z,39.91
2019-05-01T09:10:23.735Z,39.91
2019-05-01T09:12:54.565Z,39.77
2019-05-01T09:15:26.374Z,39.60
2019-05-01T09:17:58.305Z,39.60
2019-05-01T09:20:32.294Z,39.46
2019-05-01T09:23:03.829Z,39.50
2019-05-01T09:25:41.702Z,39.55
2019-05-01T09:28:19.305Z,39.40
2019-05-01T09:31:01.337Z,39.55
2019-05-01T09:33:32.048Z,39.55
2019-05-01T09:36:03.798Z,39.55
2019-05-01T09:38:35.766Z,39.46
2019-05-01T09:41:06.501Z,39.46
2019-05-01T09:43:38.778Z,39.25
2019-05-01T09:46:09.651Z,39.13
2019-05-01T09:48:40.549Z,39.18
2019-05-01T09:51:28.419Z,39.31
2019-05-01T09:54:09.704Z,39.31
2019-05-01T09:56:39.366Z,39.09
2019-05-01T10:01:56.921Z,39.05
2019-05-01T10:04:30.218Z,39.21
2019-05-01T10:07:03.892Z,39.22
2019-05-01T10:09:36.430Z,39.19
2019-05-01T10:12:11.466Z,39.20
2019-05-01T10:14:41.699Z,38.91
2019-05-01T10:17:13.564Z,38.91
2019-05-01T10:19:45.862Z,38.80
2019-05-01T10:22:18.033Z,38.80
2019-05-01T10:24:50.331Z,38.56
2019-05-01T10:27:25.785Z,38.13
2019-05-01T10:30:21.584Z,38.43
2019-05-01T10:32:59.609Z,38.87
2019-05-01T10:35:42.825Z,38.87
2019-05-01T10:38:11.926Z,38.71
2019-05-01T10:40:44.327Z,38.80
2019-05-01T10:43:16.811Z,38.60
2019-05-01T10:45:49.332Z,38.76
2019-05-01T10:51:05.314Z,38.74
2019-05-01T10:53:37.309Z,38.77
2019-05-01T10:56:09.310Z,38.87
2019-05-01T10:58:41.266Z,38.66
2019-05-01T11:01:19.414Z,38.85
2019-05-01T11:03:51.362Z,38.78
2019-05-01T11:06:23.371Z,38.69
2019-05-01T11:08:55.066Z,38.62
2019-05-01T11:11:26.779Z,38.57
2019-05-01T11:13:58.422Z,38.54
2019-05-01T11:16:30.061Z,38.35
2019-05-01T11:19:01.903Z,38.53
2019-05-01T11:21:34.026Z,38.54
2019-05-01T11:24:05.983Z,38.54
2019-05-01T11:26:37.774Z,38.58
2019-05-01T11:29:08.506Z,38.64
2019-05-01T11:32:11.535Z,38.61
2019-05-01T11:34:53.417Z,38.54
2019-05-01T11:37:35.748Z,38.63
2019-05-01T11:40:12.363Z,38.62
2019-05-01T11:42:44.023Z,38.55
2019-05-01T11:45:15.774Z,38.63
2019-05-01T11:47:46.481Z,38.65
2019-05-01T11:50:18.626Z,38.30
2019-05-01T11:52:50.737Z,38.03
2019-05-01T11:55:21.464Z,38.03
2019-05-01T11:57:53.309Z,38.56
2019-05-01T12:00:24.883Z,38.44
2019-05-01T12:02:56.359Z,38.68
2019-05-01T12:05:28.323Z,38.55
2019-05-01T12:08:00.622Z,38.21
2019-05-01T12:10:32.739Z,38.56
2019-05-01T12:13:03.492Z,38.56
2019-05-01T12:15:35.301Z,38.63
2019-05-01T12:18:06.911Z,38.70
2019-05-01T12:20:38.781Z,38.30
2019-05-01T12:23:09.632Z,38.43
2019-05-01T12:25:41.361Z,38.12
2019-05-01T12:28:13.629Z,38.12
2019-05-01T12:30:45.667Z,38.54
2019-05-01T12:33:17.359Z,38.41
2019-05-01T12:35:50.761Z,38.41
2019-05-01T12:38:21.684Z,38.09
2019-05-01T12:41:10.331Z,38.32
2019-05-01T12:43:42.605Z,38.25
2019-05-01T12:46:33.349Z,38.35
2019-05-01T12:49:05.357Z,38.35
2019-05-01T12:51:38.289Z,38.50
2019-05-01T12:54:19.356Z,38.47
2019-05-01T12:56:54.863Z,38.38
2019-05-01T12:59:26.689Z,38.29
2019-05-01T13:01:57.463Z,38.29
2019-05-01T13:04:29.300Z,38.21
2019-05-01T13:07:00.981Z,38.16
2019-05-01T13:09:32.717Z,38.21
2019-05-01T13:12:03.446Z,38.06
2019-05-01T13:14:35.341Z,38.07
2019-05-01T13:17:07.058Z,37.95
2019-05-01T13:19:38.741Z,38.11
2019-05-01T13:22:09.452Z,38.24
2019-05-01T13:24:51.055Z,38.14
2019-05-01T13:27:28.642Z,37.93
2019-05-01T13:30:16.798Z,38.09
2019-05-01T13:32:50.845Z,38.09
2019-05-01T13:35:22.577Z,37.00
2019-05-01T13:37:54.369Z,37.83
2019-05-01T13:40:26.058Z,37.83
2019-05-01T13:42:57.769Z,38.27
2019-05-01T13:45:28.472Z,38.28
2019-05-01T13:48:00.480Z,38.23
2019-05-01T13:50:32.036Z,38.09
2019-05-01T13:53:03.802Z,38.27
2019-05-01T13:55:35.779Z,38.20
2019-05-01T13:58:07.781Z,38.10
2019-05-01T14:00:38.518Z,37.59
2019-05-01T14:03:10.260Z,38.16
2019-05-01T14:05:41.831Z,37.55
2019-05-01T14:08:13.597Z,37.28
2019-05-01T14:10:45.302Z,36.18
2019-05-01T14:13:17.298Z,36.18
2019-05-01T14:15:49.033Z,36.39
2019-05-01T14:18:20.765Z,36.63
2019-05-01T14:21:10.002Z,36.49
2019-05-01T14:23:59.369Z,35.98
2019-05-01T14:26:32.311Z,36.70
2019-05-01T14:29:04.032Z,35.26
2019-05-01T14:31:35.736Z,36.40
2019-05-01T14:34:06.644Z,36.04
2019-05-01T14:36:38.345Z,35.66
2019-05-01T14:39:10.851Z,35.66
2019-05-01T14:41:42.865Z,35.86
2019-05-01T14:44:14.798Z,35.60
2019-05-01T14:46:47.347Z,35.69
2019-05-01T14:49:19.871Z,36.25
2019-05-01T14:51:52.316Z,36.35
2019-05-01T14:54:25.089Z,36.49
2019-05-01T14:56:57.862Z,36.63
2019-05-01T14:59:29.882Z,36.91
2019-05-01T15:02:01.838Z,36.83
2019-05-01T15:04:33.831Z,36.72
2019-05-01T15:07:05.823Z,36.86
2019-05-01T15:09:37.867Z,37.37
2019-05-01T15:12:10.539Z,36.84
2019-05-01T15:14:59.091Z,37.62
2019-05-01T15:17:43.844Z,37.62
2019-05-01T15:20:16.065Z,38.14
2019-05-01T15:22:48.453Z,38.04
2019-05-01T15:25:20.846Z,38.17
2019-05-01T15:27:52.846Z,38.27
2019-05-01T15:30:25.016Z,38.30
2019-05-01T15:32:57.039Z,38.39
2019-05-01T15:35:29.275Z,37.91
2019-05-01T15:38:01.852Z,38.00
2019-05-01T15:40:58.548Z,38.31
2019-05-01T15:43:35.813Z,38.07
2019-05-01T15:46:08.104Z,38.07
2019-05-01T15:48:40.440Z,38.21
2019-05-01T15:51:13.321Z,38.12
2019-05-01T15:53:45.821Z,38.33
2019-05-01T15:56:17.850Z,37.82
2019-05-01T15:58:49.865Z,38.15
2019-05-01T16:01:21.878Z,38.23
2019-05-01T16:03:53.857Z,37.95
2019-05-01T16:06:25.963Z,38.27
2019-05-01T16:08:58.535Z,38.00
2019-05-01T16:11:49.315Z,37.81
2019-05-01T16:14:21.840Z,37.93
2019-05-01T16:16:54.002Z,38.21
2019-05-01T16:19:26.089Z,38.23
2019-05-01T16:21:58.847Z,38.66
2019-05-01T16:24:30.835Z,38.61
2019-05-01T16:27:03.837Z,38.79
2019-05-01T16:29:35.873Z,38.77
2019-05-01T16:32:07.915Z,38.88
2019-05-01T16:34:40.442Z,39.05
2019-05-01T16:37:13.328Z,39.22
2019-05-01T16:40:01.078Z,38.95
2019-05-01T16:42:43.449Z,38.98
2019-05-01T16:45:15.914Z,38.31
2019-05-01T16:47:48.330Z,39.19
2019-05-01T16:50:20.792Z,39.15
2019-05-01T16:52:53.732Z,39.21
2019-05-01T16:55:25.869Z,38.94
2019-05-01T16:57:57.849Z,39.22
2019-05-01T17:01:00.423Z,39.50
2019-05-01T17:03:50.462Z,39.34
2019-05-01T17:06:41.015Z,39.71
2019-05-01T17:09:31.325Z,39.71
2019-05-01T17:12:03.845Z,39.79
2019-05-01T17:14:35.878Z,39.92
2019-05-01T17:17:11.367Z,39.92
2019-05-01T17:19:44.346Z,39.99
2019-05-01T17:22:17.323Z,39.80
2019-05-01T17:24:49.867Z,40.59
2019-05-01T17:27:22.100Z,40.40
2019-05-01T17:29:54.798Z,40.07
2019-05-01T17:32:27.057Z,40.18
2019-05-01T17:35:01.816Z,39.79
2019-05-01T17:37:33.363Z,39.86
2019-05-01T17:40:06.134Z,39.92
2019-05-01T17:42:39.328Z,39.92
2019-05-01T17:45:11.818Z,40.41
2019-05-01T17:47:43.920Z,40.46
2019-05-01T17:50:16.538Z,40.47
2019-05-01T17:52:49.422Z,40.22
2019-05-01T17:55:21.824Z,40.31
2019-05-01T17:57:54.332Z,39.96
2019-05-01T18:00:44.332Z,39.72
2019-05-01T18:03:47.699Z,39.94
2019-05-01T18:06:23.443Z,40.07
2019-05-01T18:09:02.894Z,40.03
2019-05-01T18:11:30.506Z,39.88
2019-05-01T18:14:05.565Z,39.65
2019-05-01T18:16:36.857Z,39.77
2019-05-01T18:19:10.724Z,39.77
2019-05-01T18:21:46.657Z,39.82
2019-05-01T18:24:39.022Z,39.58
2019-05-01T18:27:32.520Z,39.79
2019-05-01T18:30:08.417Z,39.79
2019-05-01T18:32:47.520Z,39.79
2019-05-01T18:35:19.107Z,39.74
2019-05-01T18:38:00.565Z,39.70
2019-05-01T18:40:37.325Z,39.56
2019-05-01T18:43:10.110Z,39.56
2019-05-01T18:45:58.415Z,39.66
2019-05-01T18:48:30.864Z,39.58
2019-05-01T18:51:03.334Z,39.62
2019-05-01T18:53:35.885Z,39.65
2019-05-01T18:56:07.923Z,39.61
2019-05-01T18:58:39.861Z,39.65
2019-05-01T19:01:12.326Z,39.50
2019-05-01T19:03:45.833Z,39.48
2019-05-01T19:06:19.327Z,39.43
2019-05-01T19:08:51.877Z,39.50
2019-05-01T19:11:24.430Z,39.49
2019-05-01T19:13:57.027Z,39.36
2019-05-01T19:16:29.452Z,39.41
2019-05-01T19:19:03.961Z,39.42
2019-05-01T19:21:36.390Z,39.40
2019-05-01T19:24:08.871Z,39.40
2019-05-01T19:26:42.604Z,39.50
2019-05-01T19:29:14.887Z,39.54
2019-05-01T19:31:46.894Z,39.54
2019-05-01T19:34:18.917Z,39.46
2019-05-01T19:36:51.623Z,39.44
2019-05-01T19:39:23.789Z,39.44
2019-05-01T19:41:56.029Z,39.52
2019-05-01T19:44:28.412Z,39.63
2019-05-01T19:47:00.928Z,39.66
2019-05-01T19:52:14.862Z,39.78
2019-05-01T19:54:46.868Z,39.79
2019-05-01T19:57:19.283Z,39.76
2019-05-01T19:59:51.926Z,39.66
2019-05-01T20:02:24.167Z,39.76
2019-05-01T20:04:56.883Z,39.74
2019-05-01T20:07:28.912Z,39.77
2019-05-01T20:10:00.906Z,39.89
2019-05-01T20:12:33.333Z,39.85
2019-05-01T20:15:06.333Z,39.79
2019-05-01T20:17:38.858Z,39.79
2019-05-01T20:20:11.058Z,39.79
2019-05-01T20:22:42.930Z,39.83
2019-05-01T20:25:19.380Z,39.77
2019-05-01T20:27:52.962Z,39.89
2019-05-01T20:30:22.353Z,39.81
2019-05-01T20:32:58.141Z,39.89
2019-05-01T20:35:30.236Z,39.91
2019-05-01T20:47:14.728Z,39.92
2019-05-01T20:49:45.954Z,39.97
2019-05-01T20:52:18.581Z,39.99
2019-05-01T20:54:50.891Z,40.00
2019-05-01T20:57:29.010Z,40.00
2019-05-01T21:00:01.355Z,39.99
2019-05-01T21:02:33.866Z,39.95
2019-05-01T21:05:23.748Z,39.94
2019-05-01T21:08:01.799Z,40.03
2019-05-01T21:10:49.982Z,40.11
2019-05-01T21:13:11.837Z,40.13
2019-05-01T21:15:47.113Z,40.15
2019-05-01T21:18:20.820Z,40.03
2019-05-01T21:20:54.052Z,40.10
2019-05-01T21:23:26.289Z,40.16
2019-05-01T21:25:58.595Z,40.21
2019-05-01T21:28:30.873Z,40.09
2019-05-01T21:31:03.856Z,40.09
2019-05-01T21:33:40.785Z,40.11
2019-05-01T21:36:10.524Z,40.27
2019-05-01T21:38:42.895Z,40.33
2019-05-01T21:41:15.060Z,40.26
2019-05-01T21:43:48.906Z,40.21
2019-05-01T21:46:22.739Z,40.21
2019-05-01T21:48:55.296Z,40.33
2019-05-01T21:51:27.838Z,40.51
2019-05-01T21:53:59.878Z,40.46
2019-05-01T21:56:32.585Z,40.49
2019-05-01T21:59:08.427Z,40.44
2019-05-01T22:01:37.755Z,40.44
2019-05-01T22:04:09.712Z,40.34
2019-05-01T22:06:41.753Z,40.55
2019-05-01T22:09:20.357Z,40.62
2019-05-01T22:11:52.819Z,40.48
2019-05-01T22:14:42.704Z,40.40
2019-05-01T22:17:20.977Z,40.40
2019-05-01T22:19:53.044Z,40.51
2019-05-01T22:22:38.690Z,40.53
2019-05-01T22:25:18.054Z,40.38
2019-05-01T22:27:55.363Z,40.51
2019-05-01T22:30:42.391Z,40.35
2019-05-01T22:33:15.848Z,40.36
2019-05-01T22:35:50.773Z,40.40
2019-05-01T22:38:22.378Z,40.51
2019-05-01T22:41:06.705Z,40.43
2019-05-01T22:43:38.097Z,40.43
2019-05-01T22:46:15.713Z,40.43
2019-05-01T22:48:47.136Z,40.40
2019-05-01T22:51:24.455Z,40.43
2019-05-01T22:53:59.888Z,40.40
2019-05-01T22:56:32.348Z,40.32
2019-05-01T22:59:04.848Z,40.43
2019-05-01T23:01:36.895Z,40.43
2019-05-01T23:04:12.157Z,40.36
2019-05-01T23:06:43.858Z,40.34
2019-05-01T23:09:17.616Z,40.34
2019-05-01T23:11:49.906Z,40.53
2019-05-01T23:14:23.337Z,40.53
2019-05-01T23:17:20.687Z,40.60
2019-05-01T23:19:52.899Z,40.46
2019-05-01T23:22:24.880Z,40.46
2019-05-01T23:24:56.855Z,40.46
2019-05-01T23:27:29.679Z,40.42
2019-05-01T23:30:01.780Z,40.53
2019-05-01T23:32:33.283Z,40.59
2019-05-01T23:35:06.084Z,40.51
2019-05-01T23:37:38.360Z,40.61
2019-05-01T23:40:15.401Z,40.67
2019-05-01T23:42:52.454Z,40.74
2019-05-01T23:45:19.407Z,40.62
2019-05-01T23:47:51.899Z,40.54
2019-05-01T23:50:23.806Z,40.64
2019-05-01T23:52:56.443Z,40.65
2019-05-01T23:55:28.825Z,40.60
2019-05-01T23:58:00.867Z,40.79
